Time;durP1;ratioP1;P1;durP2;ratioP2;P2;SDS_P1;SDS_P2;PMS_P1;PMS_P2;Temp;Humidity;BMP_temperature;BMP_pressure;BME280_temperature;BME280_humidity;BME280_pressure;Samples;Min_cycle;Max_cycle;Signal;HPM_P1;HPM_P2
2021/03/31 00:01:14;;;;;;;5.53;5.03;;;9.50;99.90;;;;;;5086119;28;20396;-81
2021/03/31 00:03:39;;;;;;;9.67;6.20;;;9.60;99.90;;;;;;5104761;28;20155;-80
2021/03/31 00:06:05;;;;;;;6.30;5.70;;;9.40;99.90;;;;;;5104671;28;20171;-80
2021/03/31 00:08:31;;;;;;;9.47;5.03;;;9.30;99.90;;;;;;5103999;28;20260;-80
2021/03/31 00:10:59;;;;;;;7.20;4.23;;;9.10;99.90;;;;;;5104359;28;20249;-80
2021/03/31 00:13:25;;;;;;;5.70;5.07;;;9.10;99.90;;;;;;5105031;28;20188;-80
2021/03/31 00:15:53;;;;;;;7.33;5.60;;;9.10;99.90;;;;;;5104635;28;20393;-80
2021/03/31 00:18:21;;;;;;;7.33;5.83;;;9.10;99.90;;;;;;5103887;28;20397;-80
2021/03/31 00:20:47;;;;;;;6.67;5.17;;;9.00;99.90;;;;;;5104761;28;20420;-80
2021/03/31 00:23:15;;;;;;;8.63;4.87;;;9.00;99.90;;;;;;5104709;28;20397;-80
2021/03/31 00:25:42;;;;;;;9.93;5.60;;;8.90;99.90;;;;;;5103855;28;20400;-81
2021/03/31 00:28:09;;;;;;;8.80;5.23;;;8.80;99.90;;;;;;5104009;28;20395;-81
2021/03/31 00:30:36;;;;;;;7.93;4.90;;;8.90;99.90;;;;;;5087156;28;20415;-79
2021/03/31 00:33:03;;;;;;;7.10;4.13;;;9.10;99.90;;;;;;5104957;28;20411;-80
2021/03/31 00:35:28;;;;;;;6.63;4.33;;;9.20;99.90;;;;;;5105005;28;20393;-81
2021/03/31 00:37:54;;;;;;;5.70;5.20;;;8.80;99.90;;;;;;5105446;28;20400;-79
2021/03/31 00:40:22;;;;;;;4.57;4.10;;;8.90;99.90;;;;;;5105638;28;20166;-79
2021/03/31 00:42:48;;;;;;;10.20;4.47;;;9.00;99.90;;;;;;5104505;28;20719;-80
2021/03/31 00:45:15;;;;;;;8.30;3.93;;;8.90;99.90;;;;;;5105484;28;20513;-80
2021/03/31 00:47:41;;;;;;;5.97;5.37;;;8.60;99.90;;;;;;5104791;28;20216;-80
2021/03/31 00:50:10;;;;;;;7.17;5.47;;;8.60;99.90;;;;;;5086512;28;20472;-81
2021/03/31 00:52:38;;;;;;;5.87;4.43;;;8.40;99.90;;;;;;5104832;28;20428;-80
2021/03/31 00:55:05;;;;;;;7.00;4.60;;;8.50;99.90;;;;;;5103738;28;20389;-80
2021/03/31 00:57:32;;;;;;;5.80;5.20;;;8.50;99.90;;;;;;5104403;28;20393;-81
2021/03/31 00:59:57;;;;;;;5.67;4.47;;;8.50;99.90;;;;;;5101809;28;20423;-81
2021/03/31 01:02:23;;;;;;;6.07;4.63;;;8.60;99.90;;;;;;5103954;28;20385;-79
2021/03/31 01:04:50;;;;;;;10.00;5.67;;;8.50;99.90;;;;;;5103978;28;20171;-80
2021/03/31 01:07:16;;;;;;;11.17;5.07;;;8.40;99.90;;;;;;5104622;28;20198;-80
2021/03/31 01:09:44;;;;;;;5.47;4.57;;;8.40;99.90;;;;;;5104241;28;20440;-80
2021/03/31 01:12:46;;;;;;;9.40;5.03;;;8.50;99.90;;;;;;5104430;28;20393;-80
2021/03/31 01:15:23;;;;;;;7.63;5.03;;;8.50;99.90;;;;;;5089315;28;20397;-81
2021/03/31 01:18:08;;;;;;;6.33;5.00;;;8.50;99.90;;;;;;5104465;28;20477;-80
2021/03/31 01:20:52;;;;;;;5.10;4.63;;;8.50;99.90;;;;;;5104396;28;20914;-80
2021/03/31 01:23:57;;;;;;;5.53;4.50;;;8.50;99.90;;;;;;5104657;28;20381;-80
2021/03/31 01:26:48;;;;;;;6.73;5.30;;;8.60;99.90;;;;;;5092578;28;20405;-80
2021/03/31 01:29:47;;;;;;;6.60;5.00;;;8.60;99.90;;;;;;5089982;28;20435;-80
2021/03/31 01:32:39;;;;;;;4.73;3.87;;;8.60;99.90;;;;;;5093465;28;20393;-80
2021/03/31 01:35:08;;;;;;;5.87;4.40;;;8.50;99.90;;;;;;5094056;28;20483;-80
2021/03/31 01:37:40;;;;;;;5.70;4.60;;;8.40;99.90;;;;;;5091276;28;20829;-80
2021/03/31 01:40:08;;;;;;;9.10;4.10;;;8.30;99.90;;;;;;5108633;28;20403;-79
2021/03/31 01:42:39;;;;;;;4.77;4.37;;;8.20;99.90;;;;;;5107205;28;20483;-79
2021/03/31 01:45:08;;;;;;;4.47;4.10;;;8.10;99.90;;;;;;5107766;28;20491;-80
2021/03/31 01:47:39;;;;;;;10.23;5.50;;;8.00;99.90;;;;;;5108216;28;20404;-80
2021/03/31 01:50:08;;;;;;;5.90;5.07;;;8.00;99.90;;;;;;5109058;28;20436;-80
2021/03/31 01:52:36;;;;;;;6.37;4.10;;;7.80;99.90;;;;;;5108157;28;20424;-80
2021/03/31 01:55:06;;;;;;;6.37;4.30;;;7.60;99.90;;;;;;5108993;28;20400;-79
2021/03/31 01:57:33;;;;;;;6.03;4.67;;;7.60;99.90;;;;;;5108848;28;20388;-80
2021/03/31 02:00:00;;;;;;;4.70;3.93;;;7.70;99.90;;;;;;5108958;28;20396;-79
2021/03/31 02:02:26;;;;;;;6.50;4.27;;;7.50;99.90;;;;;;5108356;28;20400;-80
2021/03/31 02:04:53;;;;;;;6.27;4.80;;;7.70;99.90;;;;;;5108203;28;20397;-80
2021/03/31 02:07:21;;;;;;;7.97;4.70;;;7.70;99.90;;;;;;5090657;28;20458;-80
2021/03/31 02:09:49;;;;;;;6.93;4.60;;;7.50;99.90;;;;;;5108502;28;20444;-79
2021/03/31 02:12:19;;;;;;;6.60;4.80;;;7.40;99.90;;;;;;5109785;28;20396;-80
2021/03/31 02:14:47;;;;;;;7.17;5.27;;;7.20;99.90;;;;;;5109330;28;20393;-79
2021/03/31 02:17:16;;;;;;;5.70;5.10;;;7.20;99.90;;;;;;5108466;28;20473;-79
2021/03/31 02:19:44;;;;;;;5.30;4.37;;;7.20;99.90;;;;;;5109035;28;20396;-79
2021/03/31 02:22:10;;;;;;;7.77;6.60;;;7.10;99.90;;;;;;5108950;28;20397;-79
2021/03/31 02:24:37;;;;;;;7.20;5.70;;;7.10;99.90;;;;;;5108886;28;20403;-79
2021/03/31 02:27:05;;;;;;;7.83;5.73;;;7.00;99.90;;;;;;5107874;28;20389;-80
2021/03/31 02:29:31;;;;;;;11.33;5.97;;;7.20;99.90;;;;;;5108088;28;20795;-80
2021/03/31 02:31:58;;;;;;;5.90;5.40;;;7.30;99.90;;;;;;5108634;28;20389;-79
2021/03/31 02:34:25;;;;;;;9.90;6.07;;;7.20;99.90;;;;;;5108485;28;20226;-80
2021/03/31 02:36:52;;;;;;;7.97;5.67;;;7.20;99.90;;;;;;5108275;28;20395;-80
2021/03/31 02:39:21;;;;;;;10.43;5.43;;;7.20;99.90;;;;;;5108664;28;20397;-80
2021/03/31 02:41:50;;;;;;;8.70;6.00;;;7.10;99.90;;;;;;5107073;28;20392;-80
2021/03/31 02:44:20;;;;;;;6.87;5.87;;;7.20;99.90;;;;;;5106635;28;20421;-81
2021/03/31 02:46:47;;;;;;;5.87;5.33;;;7.20;99.90;;;;;;5107978;28;20908;-80
2021/03/31 02:49:14;;;;;;;7.90;5.37;;;7.10;99.90;;;;;;5107816;28;20437;-79
2021/03/31 02:51:41;;;;;;;9.60;5.93;;;7.00;99.90;;;;;;5107603;28;20417;-79
2021/03/31 02:54:09;;;;;;;6.60;5.50;;;7.00;99.90;;;;;;5107936;28;20385;-80
2021/03/31 02:56:38;;;;;;;6.37;5.20;;;7.20;99.90;;;;;;5102681;28;20397;-81
2021/03/31 02:59:04;;;;;;;7.43;6.67;;;7.20;99.90;;;;;;5100557;28;20392;-81
2021/03/31 03:01:30;;;;;;;14.60;5.60;;;6.90;99.90;;;;;;5100632;28;20394;-81
2021/03/31 03:03:57;;;;;;;8.10;5.80;;;7.00;99.90;;;;;;5099843;28;20397;-81
2021/03/31 03:06:26;;;;;;;7.13;4.83;;;6.90;99.90;;;;;;5100514;28;20403;-81
2021/03/31 03:08:54;;;;;;;8.20;5.57;;;7.00;99.90;;;;;;5100545;28;21025;-81
2021/03/31 03:11:21;;;;;;;5.10;4.10;;;6.80;99.90;;;;;;5088395;28;20397;-80
2021/03/31 03:13:49;;;;;;;8.57;5.40;;;7.00;99.90;;;;;;5107314;28;20389;-79
2021/03/31 03:16:16;;;;;;;5.43;4.90;;;7.00;99.90;;;;;;5105297;28;20752;-80
2021/03/31 03:18:43;;;;;;;9.20;5.90;;;7.00;99.90;;;;;;5106877;28;20918;-80
2021/03/31 03:21:10;;;;;;;7.60;4.80;;;7.10;99.90;;;;;;5105703;28;20393;-79
2021/03/31 03:23:37;;;;;;;8.60;5.17;;;6.90;99.90;;;;;;5089934;28;20778;-79
2021/03/31 03:26:04;;;;;;;5.73;5.23;;;6.80;99.90;;;;;;5089172;28;20392;-79
2021/03/31 03:28:32;;;;;;;6.70;5.70;;;7.00;99.90;;;;;;5106575;28;20429;-80
2021/03/31 03:30:58;;;;;;;10.87;4.80;;;6.90;99.90;;;;;;5105991;28;20821;-80
2021/03/31 03:33:25;;;;;;;7.27;5.27;;;6.80;99.90;;;;;;5107589;28;20482;-79
2021/03/31 03:35:51;;;;;;;8.73;5.37;;;6.70;99.90;;;;;;5107278;28;20389;-80
2021/03/31 03:38:20;;;;;;;5.70;5.10;;;6.60;99.90;;;;;;5107094;28;20397;-79
2021/03/31 03:40:46;;;;;;;5.33;4.83;;;6.50;99.90;;;;;;5107209;28;20393;-79
2021/03/31 03:43:16;;;;;;;11.40;5.93;;;6.40;99.90;;;;;;5088675;28;20472;-80
2021/03/31 03:45:43;;;;;;;7.83;5.30;;;6.40;99.90;;;;;;5105577;28;20777;-79
2021/03/31 03:48:10;;;;;;;7.70;6.23;;;6.40;99.90;;;;;;5106339;28;20415;-79
2021/03/31 03:50:36;;;;;;;11.57;6.60;;;6.30;99.90;;;;;;5107090;28;20444;-81
2021/03/31 03:53:03;;;;;;;6.07;5.20;;;6.00;99.90;;;;;;5103563;28;20399;-79
2021/03/31 03:55:33;;;;;;;5.70;5.20;;;6.10;99.90;;;;;;5103613;28;20397;-79
2021/03/31 03:58:06;;;;;;;4.80;4.30;;;6.20;99.90;;;;;;5104747;28;20389;-79
2021/03/31 04:00:32;;;;;;;11.20;5.27;;;6.40;99.90;;;;;;5086720;28;20396;-79
2021/03/31 04:02:57;;;;;;;12.20;5.17;;;6.20;99.90;;;;;;5104477;28;20566;-79
2021/03/31 04:05:24;;;;;;;8.23;5.70;;;6.20;99.90;;;;;;5104280;28;20159;-79
2021/03/31 04:07:50;;;;;;;5.90;5.40;;;6.10;99.90;;;;;;5103793;28;20201;-79
2021/03/31 04:10:18;;;;;;;6.27;5.30;;;6.20;99.90;;;;;;5103727;28;20452;-79
2021/03/31 04:12:44;;;;;;;6.43;4.97;;;6.30;99.90;;;;;;5104639;28;20396;-80
2021/03/31 04:15:12;;;;;;;8.47;6.93;;;6.30;99.90;;;;;;5099971;28;20483;-81
2021/03/31 04:17:42;;;;;;;7.23;5.23;;;6.20;99.90;;;;;;5100080;28;20453;-81
2021/03/31 04:20:11;;;;;;;5.87;5.27;;;6.30;99.90;;;;;;5104399;28;20423;-80
2021/03/31 04:22:37;;;;;;;8.73;6.23;;;6.30;99.90;;;;;;5087375;28;20396;-80
2021/03/31 04:25:05;;;;;;;6.83;5.57;;;6.20;99.90;;;;;;5105994;28;20396;-79
2021/03/31 04:27:31;;;;;;;5.97;5.30;;;6.30;99.90;;;;;;5105769;28;20450;-79
2021/03/31 04:29:57;;;;;;;5.90;5.23;;;6.10;99.90;;;;;;5106041;28;20790;-80
2021/03/31 04:32:25;;;;;;;6.30;5.47;;;6.00;99.90;;;;;;5105957;28;20393;-79
2021/03/31 04:34:51;;;;;;;6.57;4.93;;;5.90;99.90;;;;;;5104116;28;20393;-79
2021/03/31 04:37:17;;;;;;;7.27;5.10;;;6.00;99.90;;;;;;5105507;28;20409;-79
2021/03/31 04:39:43;;;;;;;8.10;6.60;;;6.00;99.90;;;;;;5087169;28;20401;-79
2021/03/31 04:42:10;;;;;;;8.40;6.37;;;6.00;99.90;;;;;;5105256;28;20171;-80
2021/03/31 04:44:36;;;;;;;6.67;5.20;;;5.90;99.90;;;;;;5085296;28;20403;-79
2021/03/31 04:47:03;;;;;;;6.60;4.70;;;5.70;99.90;;;;;;5103638;28;20404;-80
2021/03/31 04:49:29;;;;;;;5.37;4.87;;;5.80;99.90;;;;;;5104247;28;20447;-79
2021/03/31 04:51:55;;;;;;;5.50;4.93;;;5.90;99.90;;;;;;5104527;28;20393;-79
2021/03/31 04:54:21;;;;;;;6.80;5.50;;;5.80;99.90;;;;;;5103968;28;20408;-79
2021/03/31 04:56:47;;;;;;;10.43;4.97;;;5.80;99.90;;;;;;5102849;28;20170;-79
2021/03/31 04:59:12;;;;;;;6.53;5.03;;;5.90;99.90;;;;;;5102288;28;20163;-79
2021/03/31 05:01:38;;;;;;;4.73;4.20;;;5.80;99.90;;;;;;5101835;28;20173;-79
2021/03/31 05:04:05;;;;;;;7.13;5.60;;;6.00;99.90;;;;;;5102838;28;20190;-79
2021/03/31 05:06:30;;;;;;;12.20;5.70;;;6.00;99.90;;;;;;5103176;28;20412;-79
2021/03/31 05:08:56;;;;;;;7.57;5.50;;;6.10;99.90;;;;;;5102176;28;20456;-79
2021/03/31 05:11:22;;;;;;;15.47;5.40;;;6.00;99.90;;;;;;5084443;28;20162;-79
2021/03/31 05:13:48;;;;;;;5.83;5.10;;;6.10;99.90;;;;;;5103003;28;20194;-79
2021/03/31 05:16:13;;;;;;;6.83;4.63;;;5.90;99.90;;;;;;5102621;28;20165;-79
2021/03/31 05:18:39;;;;;;;6.60;5.57;;;5.80;99.90;;;;;;5104276;28;20178;-78
2021/03/31 05:21:05;;;;;;;10.90;6.20;;;5.90;99.90;;;;;;5087840;28;20179;-79
2021/03/31 05:23:31;;;;;;;4.83;4.43;;;5.70;99.90;;;;;;5105989;28;20515;-79
2021/03/31 05:25:57;;;;;;;9.30;4.90;;;5.80;99.90;;;;;;5105262;28;20396;-79
2021/03/31 05:28:24;;;;;;;8.80;6.47;;;5.90;99.90;;;;;;5105718;28;20194;-79
2021/03/31 05:30:50;;;;;;;6.77;4.97;;;5.70;99.90;;;;;;5105286;28;20599;-79
2021/03/31 05:33:16;;;;;;;6.93;6.27;;;6.00;99.90;;;;;;5087900;28;20407;-78
2021/03/31 05:35:41;;;;;;;8.17;5.87;;;6.00;99.90;;;;;;5106119;28;20166;-79
2021/03/31 05:38:08;;;;;;;9.23;4.50;;;6.00;99.90;;;;;;5105838;28;20171;-78
2021/03/31 05:40:34;;;;;;;9.97;6.20;;;5.90;99.90;;;;;;5106209;28;20262;-78
2021/03/31 05:43:00;;;;;;;14.20;8.20;;;6.00;99.90;;;;;;5087459;28;20389;-79
2021/03/31 05:45:28;;;;;;;8.10;6.63;;;6.10;99.90;;;;;;5110845;28;20251;-78
2021/03/31 05:47:54;;;;;;;14.70;6.83;;;6.20;99.90;;;;;;5123279;28;20862;-79
2021/03/31 05:50:20;;;;;;;7.30;5.57;;;6.30;99.90;;;;;;5092025;28;20452;-79
2021/03/31 05:52:47;;;;;;;7.87;5.57;;;6.30;99.90;;;;;;5111895;28;20451;-78
2021/03/31 05:55:15;;;;;;;10.03;6.40;;;6.40;99.90;;;;;;5116882;28;20442;-80
2021/03/31 05:57:43;;;;;;;13.90;6.87;;;6.30;99.90;;;;;;5112204;28;20427;-82
2021/03/31 06:00:12;;;;;;;9.03;7.70;;;6.40;99.90;;;;;;5124425;28;20391;-78
2021/03/31 06:02:42;;;;;;;9.60;6.80;;;6.50;99.90;;;;;;5121185;28;20396;-79
2021/03/31 06:05:10;;;;;;;9.57;7.77;;;6.60;99.90;;;;;;5107716;28;20490;-80
2021/03/31 06:07:35;;;;;;;9.50;7.00;;;6.70;99.90;;;;;;5065693;28;20453;-79
2021/03/31 06:10:08;;;;;;;12.33;6.50;;;6.80;99.90;;;;;;5061955;28;20958;-81
2021/03/31 06:12:36;;;;;;;10.70;6.30;;;6.70;99.90;;;;;;5070407;28;20207;-80
2021/03/31 06:15:17;;;;;;;8.20;7.40;;;6.90;99.90;;;;;;5056152;28;20512;-81
2021/03/31 06:17:47;;;;;;;8.00;5.57;;;7.00;99.90;;;;;;5060405;28;20467;-81
2021/03/31 06:20:13;;;;;;;8.03;7.20;;;7.00;99.90;;;;;;5076601;28;20507;-81
2021/03/31 06:22:51;;;;;;;16.80;8.57;;;7.20;99.90;;;;;;5062048;28;20456;-81
2021/03/31 06:25:21;;;;;;;10.20;8.00;;;7.40;99.90;;;;;;5070117;28;20452;-80
2021/03/31 06:27:59;;;;;;;8.37;6.33;;;7.70;99.90;;;;;;5067211;28;20465;-80
2021/03/31 06:30:28;;;;;;;8.07;6.50;;;8.20;99.90;;;;;;5066735;28;20507;-81
2021/03/31 06:32:54;;;;;;;8.63;7.33;;;8.40;99.90;;;;;;5076507;28;20440;-80
2021/03/31 06:35:26;;;;;;;10.30;6.43;;;8.40;99.90;;;;;;5065584;28;20533;-80
2021/03/31 06:38:03;;;;;;;9.13;7.20;;;8.50;99.90;;;;;;5068149;28;20421;-80
2021/03/31 06:40:38;;;;;;;10.93;6.63;;;8.50;99.90;;;;;;5116601;28;20444;-80
2021/03/31 06:43:15;;;;;;;8.97;6.80;;;8.00;99.90;;;;;;5115124;28;20419;-80
2021/03/31 06:45:50;;;;;;;10.77;7.30;;;8.40;99.90;;;;;;5115774;28;20460;-82
2021/03/31 06:48:16;;;;;;;8.10;6.17;;;8.50;99.90;;;;;;5120050;28;20433;-81
2021/03/31 06:50:42;;;;;;;10.50;7.13;;;8.90;99.90;;;;;;5102942;28;20502;-80
2021/03/31 06:53:08;;;;;;;13.50;7.27;;;9.20;99.90;;;;;;5115099;28;20448;-82
2021/03/31 06:55:34;;;;;;;13.47;6.80;;;9.10;99.90;;;;;;5115213;28;20169;-80
2021/03/31 06:58:02;;;;;;;8.47;7.63;;;9.20;99.90;;;;;;5118964;28;20166;-79
2021/03/31 07:00:31;;;;;;;10.20;8.20;;;9.50;99.90;;;;;;5101004;28;20432;-81
2021/03/31 07:03:01;;;;;;;9.30;8.40;;;9.80;99.90;;;;;;5104988;28;20573;-80
2021/03/31 07:05:29;;;;;;;11.63;8.40;;;9.70;99.90;;;;;;5090802;28;20566;-80
2021/03/31 07:08:05;;;;;;;11.07;8.50;;;9.50;99.90;;;;;;5104863;28;20919;-79
2021/03/31 07:10:42;;;;;;;12.80;9.20;;;9.70;99.90;;;;;;5086805;28;20424;-80
2021/03/31 07:13:08;;;;;;;13.00;7.70;;;9.90;99.90;;;;;;5109310;28;20426;-80
2021/03/31 07:15:35;;;;;;;10.60;9.20;;;9.90;99.90;;;;;;5101529;28;20786;-80
2021/03/31 07:18:01;;;;;;;11.00;8.90;;;9.90;99.90;;;;;;5102796;28;21127;-80
2021/03/31 07:20:28;;;;;;;12.23;7.97;;;10.00;99.90;;;;;;5109473;27;20499;-80
2021/03/31 07:22:55;;;;;;;13.57;8.90;;;10.20;99.90;;;;;;5115047;28;20423;-80
2021/03/31 07:25:23;;;;;;;9.93;8.33;;;10.30;99.90;;;;;;5083841;28;20468;-80
2021/03/31 07:27:49;;;;;;;15.07;7.33;;;10.60;99.90;;;;;;5101316;28;20423;-80
2021/03/31 07:30:26;;;;;;;8.53;7.20;;;10.90;99.90;;;;;;5119842;28;20447;-79
2021/03/31 07:32:58;;;;;;;20.33;7.50;;;11.00;99.90;;;;;;5081165;28;20404;-79
2021/03/31 07:35:27;;;;;;;18.93;7.93;;;11.10;99.90;;;;;;5068606;28;20412;-80
2021/03/31 07:37:56;;;;;;;10.70;8.30;;;11.20;99.90;;;;;;5067620;28;20385;-80
2021/03/31 07:40:22;;;;;;;8.83;7.30;;;10.90;99.90;;;;;;5086112;28;20497;-81
2021/03/31 07:42:55;;;;;;;14.00;9.47;;;10.80;99.90;;;;;;5094991;28;20417;-80
2021/03/31 07:45:26;;;;;;;16.73;8.27;;;11.00;99.90;;;;;;5120055;28;20229;-80
2021/03/31 07:47:55;;;;;;;14.63;7.77;;;11.00;99.90;;;;;;5120198;28;20416;-80
2021/03/31 07:50:21;;;;;;;13.13;8.63;;;11.10;99.90;;;;;;5092837;28;20436;-80
2021/03/31 07:52:51;;;;;;;23.43;8.00;;;10.90;99.90;;;;;;5120227;28;20743;-80
2021/03/31 07:55:33;;;;;;;10.67;8.70;;;11.10;99.90;;;;;;5114601;28;20405;-79
2021/03/31 07:58:17;;;;;;;12.37;8.57;;;11.30;99.90;;;;;;5089456;28;20393;-80
2021/03/31 08:00:56;;;;;;;10.83;7.37;;;11.40;99.90;;;;;;5119161;28;20412;-81
2021/03/31 08:03:27;;;;;;;14.00;8.63;;;11.40;99.90;;;;;;5122561;28;20423;-81
2021/03/31 08:06:10;;;;;;;16.73;9.23;;;11.60;99.90;;;;;;5109888;28;20424;-81
2021/03/31 08:08:58;;;;;;;16.60;8.40;;;11.80;99.90;;;;;;5117782;28;20470;-81
2021/03/31 08:11:46;;;;;;;13.20;8.80;;;12.10;99.90;;;;;;5087486;28;20423;-81
2021/03/31 08:14:15;;;;;;;10.03;8.43;;;12.20;99.90;;;;;;5116449;28;20432;-81
2021/03/31 08:16:46;;;;;;;16.10;9.07;;;12.20;99.90;;;;;;5093304;28;20404;-81
2021/03/31 08:19:16;;;;;;;11.87;9.57;;;12.30;99.90;;;;;;5118193;28;20422;-81
2021/03/31 08:21:45;;;;;;;11.70;8.30;;;12.40;99.90;;;;;;5112920;28;20760;-82
2021/03/31 08:24:15;;;;;;;16.90;10.90;;;12.30;99.90;;;;;;5089636;28;20791;-82
2021/03/31 08:26:57;;;;;;;17.03;9.17;;;12.30;99.90;;;;;;5078387;28;20520;-81
2021/03/31 08:29:44;;;;;;;13.27;10.50;;;12.50;99.90;;;;;;5117670;28;20450;-82
2021/03/31 08:32:11;;;;;;;11.80;8.40;;;12.50;99.90;;;;;;5087277;28;20503;-80
2021/03/31 08:34:38;;;;;;;13.63;9.90;;;12.60;99.90;;;;;;5096511;28;20481;-81
2021/03/31 08:37:07;;;;;;;12.67;10.40;;;12.80;99.90;;;;;;5093540;28;20437;-81
2021/03/31 08:39:33;;;;;;;14.88;11.00;;;12.90;99.90;;;;;;5113665;28;20421;-80
2021/03/31 08:42:03;;;;;;;14.83;10.97;;;13.00;99.90;;;;;;5105276;28;20219;-82
2021/03/31 08:44:33;;;;;;;12.60;9.70;;;13.10;99.90;;;;;;5098218;28;20499;-82
2021/03/31 08:47:23;;;;;;;13.13;9.43;;;13.30;99.90;;;;;;5106701;28;20452;-82
2021/03/31 08:49:51;;;;;;;10.80;8.73;;;13.40;99.90;;;;;;5108414;28;20461;-82
2021/03/31 08:52:21;;;;;;;13.93;8.77;;;13.60;99.90;;;;;;5099435;28;20415;-82
2021/03/31 08:54:51;;;;;;;11.10;8.70;;;13.80;99.90;;;;;;5111484;28;20467;-81
2021/03/31 08:57:23;;;;;;;13.20;10.03;;;13.90;99.90;;;;;;5105157;28;20936;-82
2021/03/31 08:59:51;;;;;;;9.50;7.80;;;14.10;99.90;;;;;;5052948;28;20428;-81
2021/03/31 09:02:19;;;;;;;11.50;8.87;;;14.20;99.90;;;;;;5074101;28;20418;-81
2021/03/31 09:04:46;;;;;;;10.93;8.73;;;14.10;99.90;;;;;;5089777;28;20911;-81
2021/03/31 09:07:14;;;;;;;13.30;8.47;;;14.30;99.90;;;;;;5096986;28;20424;-81
2021/03/31 09:09:42;;;;;;;8.03;7.23;;;14.70;99.90;;;;;;5114246;28;20463;-81
2021/03/31 09:12:10;;;;;;;15.83;8.57;;;15.00;99.90;;;;;;5118099;28;20392;-81
2021/03/31 09:14:39;;;;;;;8.47;7.43;;;15.30;99.90;;;;;;5117316;28;20811;-81
2021/03/31 09:17:08;;;;;;;10.63;7.87;;;15.60;99.90;;;;;;5105224;28;20485;-81
2021/03/31 09:19:37;;;;;;;14.77;9.30;;;15.90;99.90;;;;;;5081039;28;20427;-81
2021/03/31 09:22:08;;;;;;;9.70;8.70;;;16.00;99.90;;;;;;5094292;28;20415;-81
2021/03/31 09:24:38;;;;;;;14.30;7.70;;;16.20;99.90;;;;;;5103340;28;20776;-81
2021/03/31 09:27:06;;;;;;;13.63;8.40;;;16.40;99.90;;;;;;5101922;28;20425;-80
2021/03/31 09:29:34;;;;;;;13.17;8.87;;;16.70;99.90;;;;;;5122696;28;20966;-80
2021/03/31 09:32:02;;;;;;;9.40;7.30;;;16.70;99.90;;;;;;5106871;28;20523;-80
2021/03/31 09:34:29;;;;;;;12.80;6.80;;;17.10;99.90;;;;;;5089739;28;20414;-80
2021/03/31 09:36:57;;;;;;;11.10;6.17;;;17.10;99.90;;;;;;5110399;28;20471;-81
2021/03/31 09:39:45;;;;;;;11.73;6.87;;;17.10;99.90;;;;;;5115906;28;20412;-81
2021/03/31 09:42:22;;;;;;;9.37;6.13;;;17.20;99.90;;;;;;5099176;28;20415;-81
2021/03/31 09:44:49;;;;;;;10.73;6.97;;;18.00;99.90;;;;;;5104199;28;20654;-80
2021/03/31 09:47:17;;;;;;;14.93;6.63;;;17.90;99.90;;;;;;5103676;28;20808;-82
2021/03/31 09:49:44;;;;;;;8.50;6.73;;;18.50;99.90;;;;;;5098091;28;20846;-82
2021/03/31 09:52:11;;;;;;;8.50;6.53;;;18.80;99.90;;;;;;5114199;28;20419;-81
2021/03/31 09:54:38;;;;;;;10.87;6.70;;;18.90;99.30;;;;;;5095374;28;20417;-81
2021/03/31 09:57:04;;;;;;;8.70;5.17;;;19.30;99.10;;;;;;5109678;28;20407;-82
2021/03/31 09:59:33;;;;;;;16.20;7.13;;;19.50;97.80;;;;;;5121075;28;20510;-82
2021/03/31 10:02:00;;;;;;;7.20;6.33;;;20.20;96.40;;;;;;5109163;28;20412;-82
2021/03/31 10:04:27;;;;;;;12.43;7.00;;;20.30;96.80;;;;;;5112910;27;20418;-81
2021/03/31 10:07:15;;;;;;;12.70;6.23;;;20.20;96.90;;;;;;5111790;28;20408;-82
2021/03/31 10:09:47;;;;;;;8.23;5.47;;;20.80;93.10;;;;;;5081595;28;20796;-82
2021/03/31 10:12:27;;;;;;;12.80;6.70;;;21.00;93.00;;;;;;5095231;28;20546;-82
2021/03/31 10:14:56;;;;;;;11.57;7.83;;;21.30;91.90;;;;;;5084972;28;20419;-82
2021/03/31 10:17:24;;;;;;;10.68;6.07;;;21.80;91.80;;;;;;5101432;28;20420;-82
2021/03/31 10:19:51;;;;;;;10.03;6.97;;;21.70;90.20;;;;;;5100727;28;20185;-83
2021/03/31 10:22:20;;;;;;;8.13;6.33;;;21.30;86.50;;;;;;5106028;28;20415;-83
2021/03/31 10:24:48;;;;;;;13.37;8.20;;;22.00;87.50;;;;;;5067889;28;20424;-83
2021/03/31 10:27:17;;;;;;;11.57;7.30;;;21.80;83.20;;;;;;5103731;28;20502;-83
2021/03/31 10:29:52;;;;;;;9.30;6.90;;;21.60;80.80;;;;;;5119685;28;20603;-83
2021/03/31 10:32:23;;;;;;;13.30;7.97;;;22.60;76.40;;;;;;5118011;27;20442;-83
2021/03/31 10:34:52;;;;;;;16.60;8.13;;;23.10;70.90;;;;;;5104434;28;20388;-83
2021/03/31 10:37:31;;;;;;;11.60;6.70;;;22.30;65.50;;;;;;5121590;28;20830;-82
2021/03/31 10:40:19;;;;;;;12.20;7.87;;;23.30;62.40;;;;;;5072422;28;20485;-82
2021/03/31 10:48:37;;;;;;;12.30;7.77;;;22.70;60.80;;;;;;5090149;28;20438;-83
2021/03/31 10:51:22;;;;;;;8.47;6.63;;;23.10;59.50;;;;;;5100983;28;20504;-83
2021/03/31 10:54:00;;;;;;;10.30;8.33;;;23.80;57.50;;;;;;5114857;28;20896;-83
2021/03/31 10:56:26;;;;;;;15.73;10.90;;;23.80;56.00;;;;;;5110191;28;20538;-83
2021/03/31 10:58:52;;;;;;;18.63;10.60;;;24.30;57.50;;;;;;5121192;28;20423;-83
2021/03/31 11:01:18;;;;;;;12.17;9.60;;;24.20;56.00;;;;;;5113671;28;20806;-83
2021/03/31 11:03:44;;;;;;;13.53;9.10;;;24.30;55.90;;;;;;5122162;28;20214;-83
2021/03/31 11:06:16;;;;;;;13.43;8.90;;;24.30;55.70;;;;;;5085649;28;20216;-83
2021/03/31 11:08:41;;;;;;;12.47;8.57;;;24.50;53.90;;;;;;5057923;28;20459;-83
2021/03/31 11:11:09;;;;;;;10.40;8.17;;;24.20;54.30;;;;;;5108252;28;20488;-83
2021/03/31 11:13:35;;;;;;;15.20;9.50;;;25.20;54.20;;;;;;5120128;28;20162;-83
2021/03/31 11:16:06;;;;;;;11.93;8.67;;;25.50;53.30;;;;;;5083004;28;20423;-83
2021/03/31 11:21:54;;;;;;;12.20;7.80;;;24.40;55.80;;;;;;5101362;28;20391;-83
2021/03/31 11:26:41;;;;;;;15.93;8.30;;;26.60;52.60;;;;;;5098904;28;20501;-83
2021/03/31 11:29:07;;;;;;;11.07;7.87;;;26.00;51.20;;;;;;5093134;28;20542;-83
2021/03/31 11:31:33;;;;;;;13.13;7.77;;;25.90;51.40;;;;;;5090108;28;20579;-83
2021/03/31 11:34:00;;;;;;;12.03;9.33;;;25.60;51.20;;;;;;5100926;28;20180;-81
2021/03/31 11:36:26;;;;;;;13.67;9.03;;;26.40;51.30;;;;;;5083082;28;20159;-82
2021/03/31 11:38:52;;;;;;;16.70;9.77;;;25.70;51.20;;;;;;5101044;28;20404;-82
2021/03/31 11:41:19;;;;;;;13.60;9.27;;;25.00;50.60;;;;;;5100749;28;20440;-82
2021/03/31 11:43:45;;;;;;;10.57;8.43;;;25.00;51.90;;;;;;5100828;28;20392;-82
2021/03/31 11:46:11;;;;;;;10.97;7.40;;;25.30;51.20;;;;;;5081312;28;20458;-82
2021/03/31 11:48:36;;;;;;;13.00;9.10;;;26.40;51.00;;;;;;5100192;28;20296;-82
2021/03/31 11:51:02;;;;;;;11.30;8.00;;;26.20;50.70;;;;;;5100666;28;20237;-83
2021/03/31 11:53:29;;;;;;;10.93;8.83;;;26.70;50.70;;;;;;5100079;28;20505;-82
2021/03/31 11:55:57;;;;;;;16.73;8.20;;;26.20;50.10;;;;;;5101287;28;20388;-82
2021/03/31 11:58:24;;;;;;;8.63;7.73;;;26.40;50.50;;;;;;5100853;28;20408;-82
2021/03/31 12:00:50;;;;;;;11.17;8.50;;;26.00;51.00;;;;;;5101931;28;20397;-83
2021/03/31 12:03:18;;;;;;;9.23;8.27;;;26.70;51.20;;;;;;5104804;28;20397;-83
2021/03/31 12:05:43;;;;;;;9.45;7.65;;;26.70;49.30;;;;;;5082669;28;20158;-82
2021/03/31 12:08:09;;;;;;;14.40;8.38;;;26.40;50.40;;;;;;5101816;28;20232;-82
2021/03/31 12:10:35;;;;;;;8.25;7.45;;;27.50;49.40;;;;;;5101602;28;20190;-82
2021/03/31 12:13:01;;;;;;;9.38;7.25;;;28.50;49.30;;;;;;5103845;28;20158;-84
2021/03/31 12:15:27;;;;;;;13.20;7.43;;;28.60;48.10;;;;;;5103992;28;20303;-83
2021/03/31 12:17:54;;;;;;;9.23;8.10;;;28.90;46.60;;;;;;5086884;28;20292;-82
2021/03/31 12:20:20;;;;;;;16.23;8.75;;;26.90;49.30;;;;;;5103428;28;20162;-82
2021/03/31 12:22:46;;;;;;;10.23;7.75;;;26.20;49.40;;;;;;5103960;28;20225;-82
2021/03/31 12:25:13;;;;;;;10.27;7.20;;;26.30;49.40;;;;;;5101660;28;20193;-83
2021/03/31 12:27:40;;;;;;;10.75;8.20;;;27.80;47.10;;;;;;5081142;28;20181;-82
2021/03/31 12:30:11;;;;;;;9.45;8.23;;;28.90;46.20;;;;;;5099371;28;20208;-82
2021/03/31 12:32:37;;;;;;;7.55;6.68;;;29.30;44.60;;;;;;5056384;28;20202;-82
2021/03/31 12:35:05;;;;;;;7.28;6.15;;;29.10;44.10;;;;;;5057204;28;20171;-82
2021/03/31 12:37:31;;;;;;;7.90;6.40;;;28.50;45.40;;;;;;5040425;28;20195;-83
2021/03/31 12:39:57;;;;;;;14.73;6.75;;;28.80;42.70;;;;;;5056847;28;20167;-82
2021/03/31 12:42:24;;;;;;;9.95;7.63;;;28.40;43.50;;;;;;5041122;28;20176;-82
2021/03/31 12:44:50;;;;;;;7.95;7.15;;;27.30;44.50;;;;;;5041075;28;20711;-83
2021/03/31 12:47:17;;;;;;;8.38;7.13;;;27.90;45.50;;;;;;5057337;28;20210;-82
2021/03/31 12:49:44;;;;;;;9.75;6.85;;;26.70;44.50;;;;;;5037427;28;20231;-83
2021/03/31 12:52:13;;;;;;;8.82;5.65;;;28.10;44.50;;;;;;5036528;28;20223;-82
2021/03/31 12:57:25;;;;;;;9.38;6.47;;;27.80;42.10;;;;;;5036938;28;20183;-83
2021/03/31 12:59:53;;;;;;;9.32;7.53;;;27.30;44.00;;;;;;5036575;28;20232;-83
2021/03/31 13:02:19;;;;;;;14.82;6.82;;;28.80;42.70;;;;;;5036618;28;20269;-83
2021/03/31 13:04:45;;;;;;;10.50;7.25;;;30.30;42.10;;;;;;5055969;28;20642;-83
2021/03/31 13:07:12;;;;;;;11.43;6.65;;;30.80;41.50;;;;;;5056844;28;20195;-81
2021/03/31 13:09:38;;;;;;;10.23;7.63;;;30.70;39.10;;;;;;5050815;28;20305;-83
2021/03/31 13:12:07;;;;;;;9.35;6.43;;;31.20;40.70;;;;;;5066719;28;20190;-83